EGGW/LTN METAR and TAF weather

Enter ICAO airport designator
Station Type Date Time Source
EGGW METAR 2021/09/25 12:50 UTC NOAA

EGGW 251250Z AUTO 19004KT 140V230 9999 OVC007 18/16 Q1014


Station Type Date Time Source
EGGW Decoded METAR 2021/09/25 12:50 UTC NOAA

Luton Airport , United Kingdom (EGGW) 51-52N 000-22W
Sep 25, 2021 - 08:50 AM EDT / 2021.09.25 1250 UTC
Wind: from the S (190 degrees) at 5 MPH (4 KT) (direction variable):0
Visibility: greater than 7 mile(s):0
Sky conditions: overcast
Temperature: 64 F (18 C)
Dew Point: 60 F (16 C)
Relative Humidity: 88%
Pressure (altimeter): 29.94 in. Hg (1014 hPa)
ob: EGGW 251250Z AUTO 19004KT 140V230 9999 OVC007 18/16 Q1014
cycle: 13

Station Type Date Time Source
EGGW TAF 2021/09/25 12:09 UTC NOAA

TAF EGGW 251052Z 2512/2612 VRB03KT 6000 BKN006
BECMG 2512/2514 9999 SCT018 PROB30
TEMPO 2512/2513 BKN003 PROB40
TEMPO 2514/2524 BKN012 PROB40
TEMPO 2600/2608 6000 BKN006
BECMG 2606/2609 21010KT

Example: see airport list